DHYPE EDLW-EDLW

Flight info

Callsign DHYPE
Flight time 0h 15m
Altitude
Route DCT
Aircraft EC45

Departure

Time 2026-04-30 19:21
Airport Dortmund Airport (EDLW)

Arrival

Time 2026-04-30 19:37
Airport Dortmund Airport (EDLW)
Time Latitude Longitude Altitude Speed Heading
2026-04-30 19:13 51.51103 7.60358 472 ft 0 kts 360°
2026-04-30 19:19 51.51103 7.60352 472 ft 0 kts 34°
2026-04-30 19:19 51.51110 7.60361 525 ft 6 kts 38°
2026-04-30 19:20 51.51176 7.60606 668 ft 45 kts 56°
2026-04-30 19:20 51.51382 7.61208 713 ft 72 kts 60°
2026-04-30 19:20 51.51897 7.62728 782 ft 84 kts 86°
2026-04-30 19:21 51.51527 7.63184 952 ft 78 kts 186°
2026-04-30 19:21 51.50980 7.61593 1215 ft 86 kts 242°
2026-04-30 19:22 51.50516 7.59927 1541 ft 80 kts 232°
2026-04-30 19:22 51.49790 7.58768 2221 ft 11 kts 206°
2026-04-30 19:23 51.49840 7.58925 2563 ft 0 kts 206°
2026-04-30 19:24 51.49835 7.58924 2704 ft 0 kts 351°
2026-04-30 19:24 51.49837 7.58921 2623 ft 0 kts 351°
2026-04-30 19:24 51.49800 7.58909 2332 ft 12 kts 351°
2026-04-30 19:25 51.50232 7.58093 1221 ft 93 kts 357°
2026-04-30 19:26 51.51069 7.59138 680 ft 84 kts 62°
2026-04-30 19:26 51.51622 7.60677 493 ft 111 kts 63°
2026-04-30 19:26 51.52026 7.61807 472 ft 117 kts 63°
2026-04-30 19:27 51.52702 7.63958 871 ft 95 kts 85°
2026-04-30 19:27 51.51704 7.63864 1214 ft 116 kts 230°
2026-04-30 19:28 51.51210 7.62733 1189 ft 131 kts 232°
2026-04-30 19:28 51.50226 7.60050 1065 ft 140 kts 238°
2026-04-30 19:29 51.50756 7.58211 1159 ft 123 kts 29°
2026-04-30 19:29 51.51232 7.59420 721 ft 136 kts 68°
2026-04-30 19:30 51.52427 7.62966 839 ft 76 kts 72°
2026-04-30 19:30 51.51659 7.63143 1075 ft 108 kts 222°
2026-04-30 19:31 51.50695 7.60976 1009 ft 128 kts 234°
2026-04-30 19:31 51.50347 7.59654 955 ft 130 kts 274°
2026-04-30 19:31 51.51486 7.60238 560 ft 126 kts 62°
2026-04-30 19:32 51.51903 7.61443 476 ft 120 kts 64°
2026-04-30 19:32 51.52303 7.62542 562 ft 106 kts 61°
2026-04-30 19:32 51.52743 7.63432 715 ft 98 kts 37°
2026-04-30 19:32 51.53388 7.63393 883 ft 104 kts 335°
2026-04-30 19:33 51.53736 7.62327 909 ft 117 kts 272°
2026-04-30 19:33 51.53703 7.61020 982 ft 118 kts 260°
2026-04-30 19:33 51.53519 7.59741 1035 ft 116 kts 253°
2026-04-30 19:33 51.53268 7.58512 1109 ft 116 kts 244°
2026-04-30 19:34 51.52978 7.57354 1343 ft 99 kts 245°
2026-04-30 19:34 51.52765 7.56553 1749 ft 60 kts 241°
2026-04-30 19:34 51.52596 7.55747 2251 ft 16 kts 110°
2026-04-30 19:35 51.52542 7.55791 2442 ft 10 kts 90°
2026-04-30 19:35 51.52551 7.55823 2695 ft 1 kts 81°
2026-04-30 19:35 51.52548 7.55824 2722 ft 1 kts 81°
2026-04-30 19:35 51.52549 7.55823 2562 ft 0 kts 81°
2026-04-30 19:36 51.52549 7.55825 2276 ft 0 kts 132°
2026-04-30 19:37 51.52548 7.55825 1761 ft 0 kts 119°
2026-04-30 19:37 51.52547 7.55825 1507 ft 0 kts 119°
2026-04-30 19:38 51.52547 7.55826 1384 ft 0 kts 119°
2026-04-30 19:38 51.52546 7.55825 1262 ft 0 kts 119°
2026-04-30 19:39 51.52545 7.55824 988 ft 0 kts 119°
2026-04-30 19:39 51.52545 7.55823 1016 ft 0 kts 119°
2026-04-30 19:39 51.52545 7.55825 1181 ft 0 kts 119°
2026-04-30 19:41 51.52434 7.55988 1266 ft 56 kts 129°
2026-04-30 19:41 51.52006 7.56679 823 ft 119 kts 126°
2026-04-30 19:41 51.51454 7.57733 797 ft 116 kts 129°
2026-04-30 19:41 51.51076 7.58782 805 ft 109 kts 92°
2026-04-30 19:42 51.51378 7.59987 594 ft 125 kts 61°
2026-04-30 19:42 51.51829 7.61216 464 ft 127 kts 62°
2026-04-30 19:42 51.52243 7.62418 478 ft 119 kts 64°
2026-04-30 19:42 51.52622 7.63529 577 ft 114 kts 63°
2026-04-30 19:43 51.53229 7.64212 704 ft 111 kts
2026-04-30 19:43 51.53766 7.63459 918 ft 111 kts 284°
2026-04-30 19:43 51.53517 7.62370 1156 ft 104 kts 234°
2026-04-30 19:44 51.52877 7.60403 1317 ft 92 kts 233°
2026-04-30 19:44 51.52594 7.59685 1411 ft 50 kts 232°
2026-04-30 19:44 51.52484 7.59352 1384 ft 18 kts 211°
2026-04-30 19:44 51.52484 7.59291 1258 ft 0 kts 193°
2026-04-30 19:45 51.52472 7.59296 1182 ft 1 kts 165°
2026-04-30 19:45 51.52465 7.59300 1110 ft 7 kts 172°
2026-04-30 19:45 51.52289 7.59400 1003 ft 46 kts 154°
2026-04-30 19:45 51.51904 7.59639 823 ft 71 kts 149°
2026-04-30 19:46 51.51436 7.59990 793 ft 65 kts 142°
2026-04-30 19:46 51.51201 7.60197 853 ft 9 kts 140°
2026-04-30 19:46 51.51188 7.60223 687 ft 12 kts 140°
2026-04-30 19:46 51.51165 7.60264 557 ft 6 kts 21°
2026-04-30 19:47 51.51124 7.60215 527 ft 5 kts 12°
2026-04-30 19:47 51.51123 7.60244 490 ft 6 kts 14°
2026-04-30 19:47 51.51150 7.60305 467 ft 5 kts 333°
2026-04-30 19:47 51.51150 7.60313 462 ft 0 kts 333°